sensor_id;sensor_type;location;lat;lon;timestamp;pressure;altitude;pressure_sealevel;temperature;humidity
7746;BME280;3917;42.748;23.278;2022-07-29T00:00:05;95653.00;;;19.63;73.73
7746;BME280;3917;42.748;23.278;2022-07-29T00:02:32;95660.13;;;19.54;74.23
7746;BME280;3917;42.748;23.278;2022-07-29T00:04:59;95654.34;;;19.31;75.33
7746;BME280;3917;42.748;23.278;2022-07-29T00:07:27;95667.66;;;18.87;76.75
7746;BME280;3917;42.748;23.278;2022-07-29T00:09:54;95687.81;;;18.71;77.29
7746;BME280;3917;42.748;23.278;2022-07-29T00:12:22;95673.44;;;18.38;77.79
7746;BME280;3917;42.748;23.278;2022-07-29T00:14:51;95671.84;;;18.47;77.58
7746;BME280;3917;42.748;23.278;2022-07-29T00:17:18;95666.63;;;18.41;77.71
7746;BME280;3917;42.748;23.278;2022-07-29T00:19:45;95675.88;;;18.30;78.39
7746;BME280;3917;42.748;23.278;2022-07-29T00:22:12;95669.41;;;17.99;79.29
7746;BME280;3917;42.748;23.278;2022-07-29T00:24:40;95653.25;;;17.92;79.24
7746;BME280;3917;42.748;23.278;2022-07-29T00:27:06;95668.41;;;18.15;78.73
7746;BME280;3917;42.748;23.278;2022-07-29T00:29:33;95630.66;;;17.97;78.11
7746;BME280;3917;42.748;23.278;2022-07-29T00:32:00;95668.88;;;18.02;78.96
7746;BME280;3917;42.748;23.278;2022-07-29T00:34:27;95682.94;;;17.84;79.77
7746;BME280;3917;42.748;23.278;2022-07-29T00:37:11;95684.59;;;17.85;79.77
7746;BME280;3917;42.748;23.278;2022-07-29T00:39:39;95685.00;;;17.67;79.93
7746;BME280;3917;42.748;23.278;2022-07-29T00:42:06;95680.06;;;17.59;79.97
7746;BME280;3917;42.748;23.278;2022-07-29T00:44:36;95674.34;;;17.65;80.05
7746;BME280;3917;42.748;23.278;2022-07-29T00:47:03;95664.50;;;17.59;80.13
7746;BME280;3917;42.748;23.278;2022-07-29T00:49:30;95649.38;;;17.46;80.25
7746;BME280;3917;42.748;23.278;2022-07-29T00:51:57;95673.81;;;17.68;79.95
7746;BME280;3917;42.748;23.278;2022-07-29T00:54:24;95677.34;;;17.64;80.19
7746;BME280;3917;42.748;23.278;2022-07-29T00:56:53;95668.13;;;17.70;79.33
7746;BME280;3917;42.748;23.278;2022-07-29T00:59:20;95673.38;;;17.76;79.61
7746;BME280;3917;42.748;23.278;2022-07-29T01:01:47;95657.19;;;17.65;79.71
7746;BME280;3917;42.748;23.278;2022-07-29T01:04:14;95600.00;;;17.43;79.12
7746;BME280;3917;42.748;23.278;2022-07-29T01:06:41;95655.22;;;17.97;78.57
7746;BME280;3917;42.748;23.278;2022-07-29T01:09:10;95620.72;;;17.76;78.79
7746;BME280;3917;42.748;23.278;2022-07-29T01:11:37;95652.72;;;17.95;78.71
7746;BME280;3917;42.748;23.278;2022-07-29T01:14:06;95643.25;;;18.03;78.40
7746;BME280;3917;42.748;23.278;2022-07-29T01:16:43;95645.34;;;17.91;78.84
7746;BME280;3917;42.748;23.278;2022-07-29T01:19:23;95631.53;;;17.66;79.09
7746;BME280;3917;42.748;23.278;2022-07-29T01:21:57;95647.06;;;17.65;79.06
7746;BME280;3917;42.748;23.278;2022-07-29T01:24:34;95644.66;;;17.37;80.48
7746;BME280;3917;42.748;23.278;2022-07-29T01:27:21;95616.53;;;17.31;80.45
7746;BME280;3917;42.748;23.278;2022-07-29T01:29:55;95630.75;;;17.38;80.98
7746;BME280;3917;42.748;23.278;2022-07-29T01:32:26;95627.59;;;17.51;80.79
7746;BME280;3917;42.748;23.278;2022-07-29T01:34:56;95631.75;;;17.59;80.42
7746;BME280;3917;42.748;23.278;2022-07-29T01:37:28;95621.22;;;17.73;79.56
7746;BME280;3917;42.748;23.278;2022-07-29T01:39:57;95612.31;;;17.87;78.71
7746;BME280;3917;42.748;23.278;2022-07-29T01:42:29;95630.22;;;18.15;78.20
7746;BME280;3917;42.748;23.278;2022-07-29T01:45:03;95623.72;;;18.31;77.98
7746;BME280;3917;42.748;23.278;2022-07-29T01:47:40;95636.88;;;18.39;77.80
7746;BME280;3917;42.748;23.278;2022-07-29T01:50:11;95629.47;;;18.35;77.82
7746;BME280;3917;42.748;23.278;2022-07-29T01:52:43;95634.38;;;18.38;78.40
7746;BME280;3917;42.748;23.278;2022-07-29T01:55:14;95628.16;;;18.47;77.90
7746;BME280;3917;42.748;23.278;2022-07-29T01:57:44;95626.56;;;18.56;77.80
7746;BME280;3917;42.748;23.278;2022-07-29T02:00:15;95631.22;;;18.56;78.03
7746;BME280;3917;42.748;23.278;2022-07-29T02:02:44;95622.78;;;18.57;77.28
7746;BME280;3917;42.748;23.278;2022-07-29T02:05:15;95634.69;;;18.41;77.94
7746;BME280;3917;42.748;23.278;2022-07-29T02:07:44;95623.16;;;18.24;78.62
7746;BME280;3917;42.748;23.278;2022-07-29T02:10:13;95558.63;;;17.98;77.92
7746;BME280;3917;42.748;23.278;2022-07-29T02:12:42;95607.91;;;18.38;77.62
7746;BME280;3917;42.748;23.278;2022-07-29T02:15:12;95586.53;;;18.20;77.95
7746;BME280;3917;42.748;23.278;2022-07-29T02:17:43;95636.34;;;18.42;77.66
7746;BME280;3917;42.748;23.278;2022-07-29T02:20:12;95625.91;;;18.34;78.04
7746;BME280;3917;42.748;23.278;2022-07-29T02:22:41;95608.44;;;18.30;77.40
7746;BME280;3917;42.748;23.278;2022-07-29T02:25:08;95611.16;;;18.30;77.60
7746;BME280;3917;42.748;23.278;2022-07-29T02:27:37;95600.69;;;18.07;77.89
7746;BME280;3917;42.748;23.278;2022-07-29T02:30:07;95583.66;;;17.90;78.48
7746;BME280;3917;42.748;23.278;2022-07-29T02:32:37;95589.41;;;17.88;79.08
7746;BME280;3917;42.748;23.278;2022-07-29T02:35:07;95601.25;;;18.14;78.19
7746;BME280;3917;42.748;23.278;2022-07-29T02:37:35;95583.72;;;18.00;79.16
7746;BME280;3917;42.748;23.278;2022-07-29T02:40:04;95581.53;;;17.92;78.97
7746;BME280;3917;42.748;23.278;2022-07-29T02:42:33;95608.31;;;18.05;78.67
7746;BME280;3917;42.748;23.278;2022-07-29T02:45:00;95584.34;;;17.65;79.91
7746;BME280;3917;42.748;23.278;2022-07-29T02:47:31;95597.72;;;17.67;80.72
7746;BME280;3917;42.748;23.278;2022-07-29T02:50:07;95604.03;;;17.72;80.98
7746;BME280;3917;42.748;23.278;2022-07-29T02:52:37;95601.06;;;17.74;81.01
7746;BME280;3917;42.748;23.278;2022-07-29T02:55:10;95604.97;;;17.93;80.67
7746;BME280;3917;42.748;23.278;2022-07-29T02:57:43;95609.38;;;17.99;80.08
7746;BME280;3917;42.748;23.278;2022-07-29T03:00:11;95600.13;;;18.05;80.16
7746;BME280;3917;42.748;23.278;2022-07-29T03:02:42;95604.53;;;18.11;79.93
7746;BME280;3917;42.748;23.278;2022-07-29T03:05:15;95605.94;;;17.72;81.53
7746;BME280;3917;42.748;23.278;2022-07-29T03:07:46;95609.88;;;17.86;80.95
7746;BME280;3917;42.748;23.278;2022-07-29T03:10:14;95598.66;;;17.87;81.01
7746;BME280;3917;42.748;23.278;2022-07-29T03:12:41;95604.97;;;17.93;80.85
7746;BME280;3917;42.748;23.278;2022-07-29T03:15:09;95611.56;;;17.97;80.85
7746;BME280;3917;42.748;23.278;2022-07-29T03:17:37;95605.88;;;18.03;80.45
7746;BME280;3917;42.748;23.278;2022-07-29T03:20:07;95599.56;;;18.03;80.02
7746;BME280;3917;42.748;23.278;2022-07-29T03:22:38;95570.03;;;17.85;80.13
7746;BME280;3917;42.748;23.278;2022-07-29T03:25:09;95605.03;;;18.03;80.11
7746;BME280;3917;42.748;23.278;2022-07-29T03:27:36;95607.22;;;18.06;79.80
7746;BME280;3917;42.748;23.278;2022-07-29T03:30:03;95605.59;;;18.10;79.95
7746;BME280;3917;42.748;23.278;2022-07-29T03:32:30;95612.72;;;18.11;79.83
7746;BME280;3917;42.748;23.278;2022-07-29T03:34:57;95558.50;;;17.78;79.58
7746;BME280;3917;42.748;23.278;2022-07-29T03:37:24;95597.81;;;17.77;80.73
7746;BME280;3917;42.748;23.278;2022-07-29T03:39:55;95606.78;;;17.77;81.18
7746;BME280;3917;42.748;23.278;2022-07-29T03:42:25;95609.28;;;17.84;80.80
7746;BME280;3917;42.748;23.278;2022-07-29T03:44:54;95604.44;;;17.96;80.46
7746;BME280;3917;42.748;23.278;2022-07-29T03:47:23;95622.56;;;18.17;79.87
7746;BME280;3917;42.748;23.278;2022-07-29T03:49:54;95621.19;;;18.20;79.60
7746;BME280;3917;42.748;23.278;2022-07-29T03:52:24;95625.41;;;18.42;78.90
7746;BME280;3917;42.748;23.278;2022-07-29T03:54:52;95626.00;;;18.49;78.75
7746;BME280;3917;42.748;23.278;2022-07-29T03:57:20;95622.81;;;18.78;77.78
7746;BME280;3917;42.748;23.278;2022-07-29T03:59:50;95628.34;;;19.28;76.07
7746;BME280;3917;42.748;23.278;2022-07-29T04:02:17;95622.38;;;19.56;73.39
7746;BME280;3917;42.748;23.278;2022-07-29T04:04:45;95614.66;;;19.94;71.89
7746;BME280;3917;42.748;23.278;2022-07-29T04:07:13;95608.94;;;20.64;71.11
7746;BME280;3917;42.748;23.278;2022-07-29T04:09:40;95625.25;;;21.39;67.54
7746;BME280;3917;42.748;23.278;2022-07-29T04:12:08;95628.63;;;22.69;63.22
7746;BME280;3917;42.748;23.278;2022-07-29T04:14:36;95622.50;;;23.84;59.23
7746;BME280;3917;42.748;23.278;2022-07-29T04:17:03;95601.59;;;24.43;57.18
7746;BME280;3917;42.748;23.278;2022-07-29T04:19:31;95617.75;;;25.62;54.34
7746;BME280;3917;42.748;23.278;2022-07-29T04:21:59;95601.69;;;26.48;51.80
7746;BME280;3917;42.748;23.278;2022-07-29T04:24:26;95612.75;;;26.48;51.83
7746;BME280;3917;42.748;23.278;2022-07-29T04:26:53;95614.56;;;25.33;54.76
7746;BME280;3917;42.748;23.278;2022-07-29T04:29:21;95626.72;;;23.95;58.39
7746;BME280;3917;42.748;23.278;2022-07-29T04:31:48;95621.31;;;25.27;55.02
7746;BME280;3917;42.748;23.278;2022-07-29T04:34:14;95631.91;;;25.47;54.71
7746;BME280;3917;42.748;23.278;2022-07-29T04:36:41;95627.84;;;25.44;54.42
7746;BME280;3917;42.748;23.278;2022-07-29T04:39:08;95636.78;;;23.86;58.58
7746;BME280;3917;42.748;23.278;2022-07-29T04:41:35;95645.16;;;23.07;62.10
7746;BME280;3917;42.748;23.278;2022-07-29T04:44:02;95629.88;;;24.48;57.93
7746;BME280;3917;42.748;23.278;2022-07-29T04:46:32;95640.22;;;26.13;52.81
7746;BME280;3917;42.748;23.278;2022-07-29T04:48:59;95619.13;;;25.95;52.76
7746;BME280;3917;42.748;23.278;2022-07-29T04:51:26;95642.00;;;25.16;55.83
7746;BME280;3917;42.748;23.278;2022-07-29T04:53:52;95649.88;;;23.94;58.98
7746;BME280;3917;42.748;23.278;2022-07-29T04:56:19;95656.41;;;22.15;65.32
7746;BME280;3917;42.748;23.278;2022-07-29T04:58:46;95648.47;;;22.14;65.88
7746;BME280;3917;42.748;23.278;2022-07-29T05:01:14;95650.06;;;22.20;66.03
7746;BME280;3917;42.748;23.278;2022-07-29T05:03:42;95638.00;;;21.53;67.61
7746;BME280;3917;42.748;23.278;2022-07-29T05:06:11;95641.31;;;22.13;65.70
7746;BME280;3917;42.748;23.278;2022-07-29T05:08:38;95629.88;;;22.53;64.43
7746;BME280;3917;42.748;23.278;2022-07-29T05:11:04;95627.34;;;22.09;65.73
7746;BME280;3917;42.748;23.278;2022-07-29T05:13:31;95624.41;;;22.53;65.37
7746;BME280;3917;42.748;23.278;2022-07-29T05:15:58;95650.09;;;23.47;62.16
7746;BME280;3917;42.748;23.278;2022-07-29T05:18:25;95653.09;;;23.83;60.66
7746;BME280;3917;42.748;23.278;2022-07-29T05:20:53;95614.63;;;24.24;59.50
7746;BME280;3917;42.748;23.278;2022-07-29T05:23:20;95649.22;;;24.89;57.34
7746;BME280;3917;42.748;23.278;2022-07-29T05:25:47;95641.63;;;24.54;58.13
7746;BME280;3917;42.748;23.278;2022-07-29T05:28:19;95652.22;;;24.20;59.82
7746;BME280;3917;42.748;23.278;2022-07-29T05:30:46;95635.50;;;24.43;58.56
7746;BME280;3917;42.748;23.278;2022-07-29T05:33:16;95611.56;;;23.79;58.73
7746;BME280;3917;42.748;23.278;2022-07-29T05:35:43;95655.03;;;24.15;59.03
7746;BME280;3917;42.748;23.278;2022-07-29T05:38:11;95652.03;;;24.57;59.44
7746;BME280;3917;42.748;23.278;2022-07-29T05:40:40;95639.97;;;24.67;58.23
7746;BME280;3917;42.748;23.278;2022-07-29T05:43:09;95649.91;;;25.80;55.60
7746;BME280;3917;42.748;23.278;2022-07-29T05:45:38;95654.34;;;26.12;54.83
7746;BME280;3917;42.748;23.278;2022-07-29T05:48:07;95656.75;;;26.58;53.02
7746;BME280;3917;42.748;23.278;2022-07-29T05:50:34;95657.22;;;28.07;49.84
7746;BME280;3917;42.748;23.278;2022-07-29T05:53:01;95651.03;;;30.03;45.60
7746;BME280;3917;42.748;23.278;2022-07-29T05:55:29;95662.44;;;31.36;42.23
7746;BME280;3917;42.748;23.278;2022-07-29T05:57:58;95659.88;;;31.31;41.77
7746;BME280;3917;42.748;23.278;2022-07-29T06:00:25;95663.88;;;29.16;46.23
7746;BME280;3917;42.748;23.278;2022-07-29T06:02:52;95661.28;;;31.25;42.33
7746;BME280;3917;42.748;23.278;2022-07-29T06:05:18;95624.56;;;31.99;39.64
7746;BME280;3917;42.748;23.278;2022-07-29T06:07:45;95661.31;;;32.29;39.79
7746;BME280;3917;42.748;23.278;2022-07-29T06:10:12;95627.72;;;31.86;39.88
7746;BME280;3917;42.748;23.278;2022-07-29T06:12:40;95652.91;;;31.62;40.63
7746;BME280;3917;42.748;23.278;2022-07-29T06:15:10;95659.78;;;32.59;39.18
7746;BME280;3917;42.748;23.278;2022-07-29T06:17:37;95662.94;;;32.02;39.52
7746;BME280;3917;42.748;23.278;2022-07-29T06:20:05;95653.91;;;32.21;39.28
7746;BME280;3917;42.748;23.278;2022-07-29T06:22:32;95663.09;;;33.08;37.35
7746;BME280;3917;42.748;23.278;2022-07-29T06:25:00;95605.41;;;32.85;37.46
7746;BME280;3917;42.748;23.278;2022-07-29T06:27:51;95660.59;;;32.32;39.42
7746;BME280;3917;42.748;23.278;2022-07-29T06:30:22;95656.31;;;32.50;39.21
7746;BME280;3917;42.748;23.278;2022-07-29T06:32:48;95658.09;;;32.71;38.90
7746;BME280;3917;42.748;23.278;2022-07-29T06:35:15;95657.66;;;33.00;38.78
7746;BME280;3917;42.748;23.278;2022-07-29T06:37:42;95639.09;;;33.23;38.12
7746;BME280;3917;42.748;23.278;2022-07-29T06:40:10;95642.50;;;31.86;40.78
7746;BME280;3917;42.748;23.278;2022-07-29T06:42:54;95652.91;;;31.37;41.63
7746;BME280;3917;42.748;23.278;2022-07-29T06:45:23;95644.69;;;31.05;42.61
7746;BME280;3917;42.748;23.278;2022-07-29T06:47:52;95643.91;;;29.73;45.87
7746;BME280;3917;42.748;23.278;2022-07-29T06:50:21;95646.66;;;31.16;43.40
7746;BME280;3917;42.748;23.278;2022-07-29T06:52:47;95622.28;;;31.01;42.55
7746;BME280;3917;42.748;23.278;2022-07-29T06:55:14;95640.38;;;31.07;42.42
7746;BME280;3917;42.748;23.278;2022-07-29T06:57:41;95634.78;;;31.43;40.92
7746;BME280;3917;42.748;23.278;2022-07-29T07:00:15;95642.78;;;33.78;37.36
7746;BME280;3917;42.748;23.278;2022-07-29T07:02:44;95645.63;;;34.35;36.31
7746;BME280;3917;42.748;23.278;2022-07-29T07:05:10;95636.06;;;36.02;33.21
7746;BME280;3917;42.748;23.278;2022-07-29T07:07:37;95633.28;;;37.53;29.44
7746;BME280;3917;42.748;23.278;2022-07-29T07:10:07;95622.69;;;38.94;27.87
7746;BME280;3917;42.748;23.278;2022-07-29T07:12:34;95620.34;;;37.45;29.46
7746;BME280;3917;42.748;23.278;2022-07-29T07:15:04;95628.53;;;33.32;34.17
7746;BME280;3917;42.748;23.278;2022-07-29T07:17:31;95620.53;;;33.85;31.11
7746;BME280;3917;42.748;23.278;2022-07-29T07:20:01;95631.00;;;34.64;30.52
7746;BME280;3917;42.748;23.278;2022-07-29T07:22:30;95624.03;;;33.78;31.41
7746;BME280;3917;42.748;23.278;2022-07-29T07:24:57;95628.78;;;33.97;31.08
7746;BME280;3917;42.748;23.278;2022-07-29T07:27:23;95623.22;;;34.16;30.84
7746;BME280;3917;42.748;23.278;2022-07-29T07:29:50;95624.41;;;34.15;31.23
7746;BME280;3917;42.748;23.278;2022-07-29T07:32:17;95606.31;;;35.68;28.03
7746;BME280;3917;42.748;23.278;2022-07-29T07:34:44;95622.22;;;35.60;28.58
7746;BME280;3917;42.748;23.278;2022-07-29T07:37:13;95623.63;;;35.47;29.19
7746;BME280;3917;42.748;23.278;2022-07-29T07:39:40;95618.63;;;34.46;30.37
7746;BME280;3917;42.748;23.278;2022-07-29T07:42:06;95621.53;;;34.72;30.58
7746;BME280;3917;42.748;23.278;2022-07-29T07:44:35;95622.81;;;34.56;30.39
7746;BME280;3917;42.748;23.278;2022-07-29T07:47:02;95620.53;;;34.61;30.80
7746;BME280;3917;42.748;23.278;2022-07-29T07:49:29;95622.91;;;33.83;31.35
7746;BME280;3917;42.748;23.278;2022-07-29T07:51:56;95604.91;;;35.06;29.54
7746;BME280;3917;42.748;23.278;2022-07-29T07:54:24;95631.88;;;36.19;27.68
7746;BME280;3917;42.748;23.278;2022-07-29T07:56:51;95589.38;;;35.61;28.39
7746;BME280;3917;42.748;23.278;2022-07-29T07:59:18;95628.84;;;37.52;26.27
7746;BME280;3917;42.748;23.278;2022-07-29T08:01:45;95614.09;;;37.73;26.98
7746;BME280;3917;42.748;23.278;2022-07-29T08:04:11;95610.81;;;37.60;25.95
7746;BME280;3917;42.748;23.278;2022-07-29T08:06:38;95600.94;;;35.86;28.09
7746;BME280;3917;42.748;23.278;2022-07-29T08:09:05;95611.00;;;36.87;27.64
7746;BME280;3917;42.748;23.278;2022-07-29T08:11:33;95575.72;;;36.96;27.45
7746;BME280;3917;42.748;23.278;2022-07-29T08:14:00;95598.94;;;36.86;27.55
7746;BME280;3917;42.748;23.278;2022-07-29T08:16:27;95608.44;;;38.41;24.85
7746;BME280;3917;42.748;23.278;2022-07-29T08:18:54;95614.19;;;37.32;25.84
7746;BME280;3917;42.748;23.278;2022-07-29T08:21:23;95602.78;;;37.11;26.50
7746;BME280;3917;42.748;23.278;2022-07-29T08:23:50;95592.47;;;37.87;26.15
7746;BME280;3917;42.748;23.278;2022-07-29T08:26:40;95596.84;;;37.20;26.31
7746;BME280;3917;42.748;23.278;2022-07-29T08:29:07;95611.47;;;37.98;24.92
7746;BME280;3917;42.748;23.278;2022-07-29T08:31:34;95612.25;;;39.30;23.72
7746;BME280;3917;42.748;23.278;2022-07-29T08:34:02;95605.38;;;39.10;23.99
7746;BME280;3917;42.748;23.278;2022-07-29T08:36:29;95607.38;;;39.17;23.68
7746;BME280;3917;42.748;23.278;2022-07-29T08:38:56;95612.97;;;34.43;30.57
7746;BME280;3917;42.748;23.278;2022-07-29T08:41:23;95562.38;;;33.94;29.72
7746;BME280;3917;42.748;23.278;2022-07-29T08:43:52;95576.50;;;36.16;27.15
7746;BME280;3917;42.748;23.278;2022-07-29T08:46:19;95576.75;;;35.21;28.31
7746;BME280;3917;42.748;23.278;2022-07-29T08:48:47;95599.06;;;34.92;29.33
7746;BME280;3917;42.748;23.278;2022-07-29T08:51:18;95588.94;;;36.52;26.46
7746;BME280;3917;42.748;23.278;2022-07-29T08:53:47;95600.59;;;35.87;27.51
7746;BME280;3917;42.748;23.278;2022-07-29T08:56:14;95593.50;;;36.30;27.05
7746;BME280;3917;42.748;23.278;2022-07-29T08:58:42;95602.13;;;36.11;27.04
7746;BME280;3917;42.748;23.278;2022-07-29T09:01:10;95593.19;;;35.75;27.69
7746;BME280;3917;42.748;23.278;2022-07-29T09:03:39;95591.34;;;35.87;27.84
7746;BME280;3917;42.748;23.278;2022-07-29T09:06:07;95589.66;;;36.45;26.84
7746;BME280;3917;42.748;23.278;2022-07-29T09:08:34;95589.66;;;36.45;26.63
7746;BME280;3917;42.748;23.278;2022-07-29T09:11:01;95580.78;;;35.24;28.51
7746;BME280;3917;42.748;23.278;2022-07-29T09:13:28;95597.31;;;36.15;27.37
7746;BME280;3917;42.748;23.278;2022-07-29T09:15:55;95573.34;;;35.91;27.85
7746;BME280;3917;42.748;23.278;2022-07-29T09:18:37;95578.97;;;34.63;29.79
7746;BME280;3917;42.748;23.278;2022-07-29T09:21:05;95583.25;;;35.55;28.49
7746;BME280;3917;42.748;23.278;2022-07-29T09:24:05;95524.22;;;34.05;30.16
7746;BME280;3917;42.748;23.278;2022-07-29T09:26:34;95574.97;;;35.36;28.72
7746;BME280;3917;42.748;23.278;2022-07-29T09:29:08;95542.50;;;36.24;26.88
7746;BME280;3917;42.748;23.278;2022-07-29T09:31:40;95546.69;;;35.48;27.43
7746;BME280;3917;42.748;23.278;2022-07-29T09:34:10;95597.13;;;36.01;27.37
7746;BME280;3917;42.748;23.278;2022-07-29T09:36:41;95588.41;;;35.01;28.17
7746;BME280;3917;42.748;23.278;2022-07-29T09:39:08;95574.56;;;35.94;27.93
7746;BME280;3917;42.748;23.278;2022-07-29T09:41:49;95572.59;;;35.64;27.24
7746;BME280;3917;42.748;23.278;2022-07-29T09:44:18;95574.81;;;36.08;26.97
7746;BME280;3917;42.748;23.278;2022-07-29T09:46:54;95565.16;;;36.82;26.36
7746;BME280;3917;42.748;23.278;2022-07-29T09:49:22;95563.94;;;36.43;25.95
7746;BME280;3917;42.748;23.278;2022-07-29T09:51:59;95560.63;;;37.15;25.67
7746;BME280;3917;42.748;23.278;2022-07-29T09:54:26;95531.41;;;37.99;24.32
7746;BME280;3917;42.748;23.278;2022-07-29T09:56:54;95553.59;;;37.42;24.83
7746;BME280;3917;42.748;23.278;2022-07-29T09:59:21;95553.59;;;37.42;24.31
7746;BME280;3917;42.748;23.278;2022-07-29T10:01:51;95548.50;;;36.23;25.71
7746;BME280;3917;42.748;23.278;2022-07-29T10:04:19;95549.28;;;37.55;23.82
7746;BME280;3917;42.748;23.278;2022-07-29T10:07:02;95545.97;;;36.92;24.29
7746;BME280;3917;42.748;23.278;2022-07-29T10:09:30;95519.16;;;37.66;23.28
7746;BME280;3917;42.748;23.278;2022-07-29T10:12:06;95509.13;;;37.04;24.68
7746;BME280;3917;42.748;23.278;2022-07-29T10:14:33;95527.00;;;37.36;24.63
7746;BME280;3917;42.748;23.278;2022-07-29T10:17:00;95530.91;;;36.70;25.70
7746;BME280;3917;42.748;23.278;2022-07-29T10:19:28;95533.28;;;36.27;26.13
7746;BME280;3917;42.748;23.278;2022-07-29T10:21:57;95527.63;;;35.91;26.46
7746;BME280;3917;42.748;23.278;2022-07-29T10:24:26;95483.50;;;37.16;24.90
7746;BME280;3917;42.748;23.278;2022-07-29T10:26:54;95500.06;;;37.28;24.11
7746;BME280;3917;42.748;23.278;2022-07-29T10:29:22;95514.63;;;35.75;26.45
7746;BME280;3917;42.748;23.278;2022-07-29T10:31:58;95517.94;;;36.18;25.77
7746;BME280;3917;42.748;23.278;2022-07-29T10:34:36;95496.91;;;35.12;26.37
7746;BME280;3917;42.748;23.278;2022-07-29T10:37:16;95500.81;;;35.93;25.64
7746;BME280;3917;42.748;23.278;2022-07-29T10:39:55;95485.81;;;34.02;29.15
7746;BME280;3917;42.748;23.278;2022-07-29T10:42:28;95500.25;;;33.85;28.32
7746;BME280;3917;42.748;23.278;2022-07-29T10:44:56;95502.94;;;33.43;29.46
7746;BME280;3917;42.748;23.278;2022-07-29T10:47:24;95460.06;;;32.81;29.35
7746;BME280;3917;42.748;23.278;2022-07-29T10:49:58;95481.47;;;32.93;30.44
7746;BME280;3917;42.748;23.278;2022-07-29T10:52:53;95489.63;;;32.67;30.16
7746;BME280;3917;42.748;23.278;2022-07-29T10:55:41;95481.41;;;32.11;31.26
7746;BME280;3917;42.748;23.278;2022-07-29T10:58:17;95488.63;;;32.12;31.70
7746;BME280;3917;42.748;23.278;2022-07-29T11:00:45;95480.97;;;32.25;31.31
7746;BME280;3917;42.748;23.278;2022-07-29T11:03:42;95479.72;;;32.38;30.98
7746;BME280;3917;42.748;23.278;2022-07-29T11:06:09;95432.00;;;32.27;29.63
7746;BME280;3917;42.748;23.278;2022-07-29T11:08:36;95460.16;;;32.22;30.30
7746;BME280;3917;42.748;23.278;2022-07-29T11:11:37;95476.19;;;32.25;30.99
7746;BME280;3917;42.748;23.278;2022-07-29T11:14:06;95464.94;;;32.22;30.53
7746;BME280;3917;42.748;23.278;2022-07-29T11:17:03;95459.28;;;32.18;30.45
7746;BME280;3917;42.748;23.278;2022-07-29T11:19:31;95433.22;;;31.98;30.30
7746;BME280;3917;42.748;23.278;2022-07-29T11:21:58;95461.22;;;32.02;30.71
7746;BME280;3917;42.748;23.278;2022-07-29T11:24:27;95407.16;;;31.91;31.64
7746;BME280;3917;42.748;23.278;2022-07-29T11:27:13;95462.72;;;32.27;30.65
7746;BME280;3917;42.748;23.278;2022-07-29T11:29:49;95460.81;;;31.72;31.32
7746;BME280;3917;42.748;23.278;2022-07-29T11:32:17;95464.38;;;31.85;31.96
7746;BME280;3917;42.748;23.278;2022-07-29T11:34:45;95452.28;;;31.81;31.33
7746;BME280;3917;42.748;23.278;2022-07-29T11:37:22;95419.97;;;31.80;31.66
7746;BME280;3917;42.748;23.278;2022-07-29T11:40:16;95452.50;;;32.03;32.22
7746;BME280;3917;42.748;23.278;2022-07-29T11:42:55;95447.56;;;31.97;31.46
7746;BME280;3917;42.748;23.278;2022-07-29T11:45:24;95397.78;;;31.83;31.47
7746;BME280;3917;42.748;23.278;2022-07-29T11:47:55;95441.97;;;32.28;30.95
7746;BME280;3917;42.748;23.278;2022-07-29T11:50:31;95428.75;;;31.94;31.42
7746;BME280;3917;42.748;23.278;2022-07-29T11:53:36;95354.59;;;31.62;32.62
7746;BME280;3917;42.748;23.278;2022-07-29T11:59:57;95438.84;;;32.30;31.22
7746;BME280;3917;42.748;23.278;2022-07-29T12:02:24;95422.28;;;32.05;31.57
7746;BME280;3917;42.748;23.278;2022-07-29T12:04:51;95426.16;;;32.32;31.27
7746;BME280;3917;42.748;23.278;2022-07-29T12:07:18;95435.53;;;32.24;32.08
7746;BME280;3917;42.748;23.278;2022-07-29T12:09:49;95419.50;;;32.21;31.76
7746;BME280;3917;42.748;23.278;2022-07-29T12:12:17;95413.38;;;32.00;32.24
7746;BME280;3917;42.748;23.278;2022-07-29T12:14:44;95404.63;;;32.01;31.56
7746;BME280;3917;42.748;23.278;2022-07-29T12:17:26;95381.22;;;31.90;31.49
7746;BME280;3917;42.748;23.278;2022-07-29T12:19:54;95424.00;;;32.10;31.92
7746;BME280;3917;42.748;23.278;2022-07-29T12:22:29;95405.09;;;31.88;31.94
7746;BME280;3917;42.748;23.278;2022-07-29T12:25:01;95408.34;;;32.05;31.93
7746;BME280;3917;42.748;23.278;2022-07-29T12:27:28;95425.19;;;32.09;31.70
7746;BME280;3917;42.748;23.278;2022-07-29T12:29:59;95414.28;;;32.04;32.01
7746;BME280;3917;42.748;23.278;2022-07-29T12:32:33;95418.94;;;32.00;32.14
7746;BME280;3917;42.748;23.278;2022-07-29T12:35:02;95395.09;;;31.87;31.93
7746;BME280;3917;42.748;23.278;2022-07-29T12:37:30;95373.00;;;31.50;32.20
7746;BME280;3917;42.748;23.278;2022-07-29T12:39:57;95409.44;;;31.73;31.71
7746;BME280;3917;42.748;23.278;2022-07-29T12:42:24;95409.81;;;31.72;32.17
7746;BME280;3917;42.748;23.278;2022-07-29T12:44:51;95403.25;;;31.80;31.97
7746;BME280;3917;42.748;23.278;2022-07-29T12:47:19;95407.94;;;31.76;31.64
7746;BME280;3917;42.748;23.278;2022-07-29T12:49:48;95395.44;;;31.85;31.14
7746;BME280;3917;42.748;23.278;2022-07-29T12:52:29;95391.13;;;31.88;31.62
7746;BME280;3917;42.748;23.278;2022-07-29T12:54:56;95339.75;;;31.58;31.67
7746;BME280;3917;42.748;23.278;2022-07-29T12:57:23;95383.50;;;31.85;31.90
7746;BME280;3917;42.748;23.278;2022-07-29T13:00:05;95358.63;;;31.64;30.72
7746;BME280;3917;42.748;23.278;2022-07-29T13:02:34;95370.50;;;31.77;32.18
7746;BME280;3917;42.748;23.278;2022-07-29T13:05:11;95381.88;;;31.99;31.73
7746;BME280;3917;42.748;23.278;2022-07-29T13:07:39;95373.84;;;31.98;31.31
7746;BME280;3917;42.748;23.278;2022-07-29T13:10:17;95374.13;;;31.93;31.29
7746;BME280;3917;42.748;23.278;2022-07-29T13:13:04;95369.69;;;31.92;31.46
7746;BME280;3917;42.748;23.278;2022-07-29T13:15:32;95319.25;;;31.66;31.73
7746;BME280;3917;42.748;23.278;2022-07-29T13:18:02;95343.53;;;31.81;31.67
7746;BME280;3917;42.748;23.278;2022-07-29T13:20:31;95357.56;;;32.00;30.97
7746;BME280;3917;42.748;23.278;2022-07-29T13:22:59;95359.63;;;31.87;31.40
7746;BME280;3917;42.748;23.278;2022-07-29T13:25:28;95360.44;;;31.88;31.23
7746;BME280;3917;42.748;23.278;2022-07-29T13:27:55;95354.16;;;31.91;30.48